Time;durP1;ratioP1;P1;durP2;ratioP2;P2;SDS_P1;SDS_P2;PMS_P1;PMS_P2;Temp;Humidity;BMP_temperature;BMP_pressure;BME280_temperature;BME280_humidity;BME280_pressure;Samples;Min_cycle;Max_cycle;Signal;HPM_P1;HPM_P2
2022/04/17 00:00:50;;;;;;;2.45;2.25;;;6.30;65.10;;;;;;4163362;28;20061;-71
2022/04/17 00:02:52;;;;;;;5.93;2.60;;;6.20;65.50;;;;;;4164474;28;20054;-72
2022/04/17 00:04:54;;;;;;;2.70;2.45;;;6.30;65.40;;;;;;4162608;28;20161;-72
2022/04/17 00:06:56;;;;;;;3.00;2.47;;;6.20;65.80;;;;;;4144448;28;20062;-72
2022/04/17 00:08:57;;;;;;;4.50;2.88;;;6.20;65.90;;;;;;4162787;28;20057;-71
2022/04/17 00:11:01;;;;;;;3.10;2.70;;;6.20;65.90;;;;;;4162145;28;20084;-71
2022/04/17 00:13:04;;;;;;;2.70;2.50;;;6.10;66.00;;;;;;4161904;28;20890;-72
2022/04/17 00:15:07;;;;;;;3.35;3.08;;;6.20;66.00;;;;;;4172421;28;20136;-72
2022/04/17 00:17:10;;;;;;;2.95;2.72;;;6.10;66.20;;;;;;4165318;28;20186;-72
2022/04/17 00:19:12;;;;;;;4.05;2.50;;;6.10;66.10;;;;;;4163781;28;20089;-71
2022/04/17 00:21:15;;;;;;;3.95;3.15;;;6.10;66.10;;;;;;4163129;28;20058;-71
2022/04/17 00:23:17;;;;;;;2.88;2.58;;;6.20;66.10;;;;;;4163965;28;20064;-71
2022/04/17 00:25:19;;;;;;;2.55;2.40;;;6.10;66.20;;;;;;4161256;28;20065;-71
2022/04/17 00:27:20;;;;;;;5.50;2.63;;;6.10;66.10;;;;;;4163618;28;20058;-72
2022/04/17 00:29:22;;;;;;;3.30;3.00;;;6.10;66.30;;;;;;4164191;28;20754;-72
2022/04/17 00:31:24;;;;;;;3.72;2.35;;;6.10;66.10;;;;;;4163889;28;20872;-72
2022/04/17 00:33:25;;;;;;;4.00;2.95;;;6.10;66.50;;;;;;4164399;28;20084;-72
2022/04/17 00:35:27;;;;;;;3.78;3.08;;;6.10;66.50;;;;;;4160735;28;20093;-72
2022/04/17 00:37:29;;;;;;;2.72;2.53;;;6.10;66.40;;;;;;4161593;28;21308;-73
2022/04/17 00:39:31;;;;;;;4.15;2.60;;;6.10;67.20;;;;;;4164635;28;20727;-72
2022/04/17 00:41:33;;;;;;;6.13;3.22;;;6.00;67.40;;;;;;4162233;28;20064;-72
2022/04/17 00:43:44;;;;;;;5.85;2.85;;;6.10;67.00;;;;;;4157969;28;20093;-72
2022/04/17 00:45:46;;;;;;;4.65;2.97;;;6.00;67.50;;;;;;4161682;28;20835;-72
2022/04/17 00:47:47;;;;;;;3.10;2.80;;;5.90;67.50;;;;;;4163364;28;20140;-72
2022/04/17 00:49:49;;;;;;;9.43;2.80;;;5.90;68.40;;;;;;4162677;28;20053;-72
2022/04/17 00:51:51;;;;;;;3.60;2.60;;;5.90;68.40;;;;;;4160099;28;20061;-72
2022/04/17 00:53:54;;;;;;;2.78;2.38;;;5.80;68.10;;;;;;4159704;28;21185;-72
2022/04/17 00:55:56;;;;;;;4.13;2.65;;;5.80;68.80;;;;;;4164624;28;20061;-72
2022/04/17 00:57:59;;;;;;;3.63;2.90;;;5.80;68.40;;;;;;4164241;28;20856;-72
2022/04/17 01:00:02;;;;;;;3.78;2.85;;;5.80;68.80;;;;;;4162749;28;20177;-72
2022/04/17 01:02:06;;;;;;;5.10;2.80;;;5.70;69.00;;;;;;4162403;28;20089;-72
2022/04/17 01:04:09;;;;;;;3.42;3.10;;;5.60;69.40;;;;;;4163809;28;20783;-72
2022/04/17 01:06:10;;;;;;;2.92;2.63;;;5.60;69.20;;;;;;4164797;28;20060;-72
2022/04/17 01:08:13;;;;;;;5.18;2.83;;;5.60;69.60;;;;;;4162929;28;20173;-72
2022/04/17 01:10:15;;;;;;;5.95;3.10;;;5.50;69.60;;;;;;4162400;28;20062;-72
2022/04/17 01:12:18;;;;;;;7.65;3.45;;;5.50;69.90;;;;;;4162975;28;20057;-72
2022/04/17 01:14:21;;;;;;;4.63;3.15;;;5.50;70.10;;;;;;4163497;28;20049;-72
2022/04/17 01:16:25;;;;;;;3.33;3.00;;;5.40;69.90;;;;;;4163053;28;20761;-72
2022/04/17 01:18:27;;;;;;;2.97;2.67;;;5.40;70.20;;;;;;4159716;28;20161;-72
2022/04/17 01:20:29;;;;;;;3.53;3.00;;;5.40;70.50;;;;;;4160512;28;20122;-72
2022/04/17 01:22:31;;;;;;;3.30;3.00;;;5.40;70.20;;;;;;4161836;28;20631;-71
2022/04/17 01:26:55;;;;;;;5.68;3.00;;;5.30;70.50;;;;;;4155962;28;20123;-72
2022/04/17 01:28:58;;;;;;;3.47;2.72;;;5.30;71.00;;;;;;4157130;28;20070;-72
2022/04/17 01:30:59;;;;;;;4.80;2.65;;;5.30;70.90;;;;;;4165509;28;20077;-72
2022/04/17 01:33:01;;;;;;;3.40;2.50;;;5.30;70.70;;;;;;4159035;28;20100;-72
2022/04/17 01:35:03;;;;;;;3.30;3.08;;;5.30;70.40;;;;;;4155269;28;20153;-72
2022/04/17 01:37:06;;;;;;;4.10;3.35;;;5.30;70.40;;;;;;4153479;28;20052;-72
2022/04/17 01:39:07;;;;;;;4.45;3.20;;;5.30;70.70;;;;;;4153778;28;20054;-72
2022/04/17 01:41:09;;;;;;;3.65;3.35;;;5.10;71.10;;;;;;4162201;28;20057;-72
2022/04/17 01:43:11;;;;;;;4.80;3.45;;;5.10;71.30;;;;;;4163703;28;20075;-72
2022/04/17 01:45:12;;;;;;;6.90;3.00;;;4.90;71.70;;;;;;4168284;28;20064;-72
2022/04/17 01:47:14;;;;;;;6.93;3.05;;;4.90;72.00;;;;;;4158171;28;20186;-72
2022/04/17 01:49:16;;;;;;;5.78;3.30;;;4.90;71.90;;;;;;4161277;28;20124;-72
2022/04/17 01:51:18;;;;;;;3.47;3.08;;;4.90;72.00;;;;;;4166009;28;20053;-72
2022/04/17 01:53:20;;;;;;;4.15;3.10;;;4.80;72.10;;;;;;4162068;28;20796;-72
2022/04/17 01:55:21;;;;;;;4.93;3.10;;;4.80;72.30;;;;;;4160009;28;20162;-72
2022/04/17 01:57:23;;;;;;;3.25;2.90;;;4.80;72.50;;;;;;4163575;28;20873;-72
2022/04/17 01:59:25;;;;;;;5.07;3.33;;;4.70;72.90;;;;;;4162988;28;20904;-72
2022/04/17 02:01:27;;;;;;;3.92;3.28;;;4.70;73.10;;;;;;4162066;28;20149;-72
2022/04/17 02:03:29;;;;;;;5.45;3.35;;;4.60;73.30;;;;;;4166151;28;20105;-72
2022/04/17 02:05:30;;;;;;;4.38;3.72;;;4.60;73.30;;;;;;4163920;28;20060;-72
2022/04/17 02:07:32;;;;;;;4.78;3.42;;;4.60;73.50;;;;;;4164429;28;20765;-71
2022/04/17 02:09:34;;;;;;;5.00;3.35;;;4.60;73.80;;;;;;4163402;28;20767;-72
2022/04/17 02:11:35;;;;;;;4.80;4.28;;;4.60;73.60;;;;;;4160619;28;20132;-72
2022/04/17 02:13:38;;;;;;;3.67;3.38;;;4.70;73.60;;;;;;4163244;28;20058;-72
2022/04/17 02:15:40;;;;;;;4.90;2.95;;;4.70;73.30;;;;;;4157561;28;20153;-72
2022/04/17 02:17:42;;;;;;;4.93;3.45;;;4.70;73.30;;;;;;4160321;28;20104;-72
2022/04/17 02:19:44;;;;;;;5.00;3.38;;;4.80;73.30;;;;;;4157032;28;20157;-72
2022/04/17 02:21:45;;;;;;;5.35;3.83;;;4.80;73.20;;;;;;4158521;28;20064;-72
2022/04/17 02:23:47;;;;;;;3.55;3.25;;;4.70;73.50;;;;;;4155556;28;20183;-72
2022/04/17 02:25:49;;;;;;;5.03;3.63;;;4.70;73.80;;;;;;4158920;28;20061;-72
2022/04/17 02:27:51;;;;;;;4.03;3.72;;;4.60;74.00;;;;;;4159425;28;20065;-72
2022/04/17 02:29:52;;;;;;;3.95;3.65;;;4.60;74.20;;;;;;4156979;28;20062;-72
2022/04/17 02:31:54;;;;;;;4.70;4.22;;;4.60;75.30;;;;;;4157436;28;20800;-72
2022/04/17 02:33:57;;;;;;;4.60;4.20;;;4.50;74.60;;;;;;4156818;28;21236;-72
2022/04/17 02:35:59;;;;;;;4.32;3.92;;;4.50;74.90;;;;;;4159371;28;20069;-72
2022/04/17 02:38:01;;;;;;;5.38;3.45;;;4.50;75.10;;;;;;4164564;28;20871;-72
2022/04/17 02:40:03;;;;;;;4.22;3.85;;;4.40;75.20;;;;;;4156931;28;20069;-72
2022/04/17 02:42:05;;;;;;;4.68;4.28;;;4.40;75.50;;;;;;4156814;28;20149;-72
2022/04/17 02:44:06;;;;;;;5.15;4.00;;;4.40;75.60;;;;;;4157519;28;20065;-72
2022/04/17 02:46:08;;;;;;;5.32;3.65;;;4.40;75.60;;;;;;4158455;28;20116;-71
2022/04/17 02:48:10;;;;;;;9.55;4.60;;;4.40;75.60;;;;;;4169664;28;20089;-72
2022/04/17 02:50:17;;;;;;;5.60;3.92;;;4.40;75.80;;;;;;4164243;28;20964;-72
2022/04/17 02:52:19;;;;;;;4.18;3.72;;;4.30;76.10;;;;;;4159100;28;20153;-72
2022/04/17 02:54:20;;;;;;;3.97;3.63;;;4.30;76.30;;;;;;4158442;28;20058;-72
2022/04/17 02:56:22;;;;;;;4.75;4.28;;;4.20;76.50;;;;;;4159782;28;20066;-72
2022/04/17 02:58:24;;;;;;;5.15;4.45;;;4.20;76.70;;;;;;4158332;28;20058;-72
2022/04/17 03:00:26;;;;;;;5.30;4.05;;;4.20;77.00;;;;;;4156011;28;20086;-72
2022/04/17 03:07:09;;;;;;;4.47;4.07;;;4.10;77.50;;;;;;4157907;28;20974;-72
2022/04/17 03:09:10;;;;;;;4.47;4.05;;;4.20;77.20;;;;;;4153645;28;20066;-72
2022/04/17 03:11:14;;;;;;;4.30;3.85;;;4.20;77.20;;;;;;4158020;28;20128;-72
2022/04/17 03:13:16;;;;;;;6.95;4.25;;;4.20;77.20;;;;;;4157618;28;20055;-72
2022/04/17 03:15:18;;;;;;;3.85;3.55;;;4.20;77.20;;;;;;4161914;28;20053;-72
2022/04/17 03:17:19;;;;;;;4.18;3.85;;;4.20;77.20;;;;;;4154360;28;20058;-72
2022/04/17 03:19:21;;;;;;;5.38;4.15;;;4.20;77.40;;;;;;4157991;28;20097;-72
2022/04/17 03:21:23;;;;;;;4.95;3.55;;;4.20;77.20;;;;;;4161766;28;20096;-72
2022/04/17 03:23:25;;;;;;;7.85;4.35;;;4.10;77.80;;;;;;4160302;28;20866;-72
2022/04/17 03:25:27;;;;;;;5.95;4.35;;;4.10;77.80;;;;;;4151292;28;20058;-72
2022/04/17 03:27:28;;;;;;;7.20;4.28;;;4.10;78.10;;;;;;4153656;28;20069;-72
2022/04/17 03:29:30;;;;;;;3.97;3.67;;;4.10;78.40;;;;;;4160143;28;20065;-72
2022/04/17 03:31:32;;;;;;;5.05;4.05;;;4.10;78.40;;;;;;4157065;28;20643;-72
2022/04/17 03:33:34;;;;;;;5.78;3.42;;;4.20;78.60;;;;;;4155425;28;20062;-72
2022/04/17 03:35:35;;;;;;;4.78;4.05;;;4.20;78.70;;;;;;4157007;28;20181;-72
2022/04/17 03:37:37;;;;;;;4.07;3.75;;;4.20;78.70;;;;;;4162870;28;20044;-72
2022/04/17 03:39:39;;;;;;;4.55;4.15;;;4.10;78.60;;;;;;4158684;28;20053;-72
2022/04/17 03:41:41;;;;;;;5.55;3.80;;;4.20;78.70;;;;;;4160407;28;20066;-72
2022/04/17 03:43:42;;;;;;;9.02;5.03;;;4.20;78.60;;;;;;4153379;28;20616;-72
2022/04/17 03:45:47;;;;;;;6.13;5.00;;;4.20;79.00;;;;;;4158554;28;20057;-72
2022/04/17 03:47:49;;;;;;;8.57;4.55;;;4.20;79.40;;;;;;4158839;28;20885;-72
2022/04/17 03:49:50;;;;;;;6.30;4.38;;;4.20;79.40;;;;;;4160526;28;20062;-72
2022/04/17 03:51:52;;;;;;;5.43;4.53;;;4.10;79.80;;;;;;4154082;28;20153;-72
2022/04/17 03:53:54;;;;;;;6.82;4.78;;;4.00;80.10;;;;;;4153898;28;20089;-72
2022/04/17 03:55:56;;;;;;;11.68;6.03;;;4.00;80.20;;;;;;4158034;28;20061;-72
2022/04/17 03:57:57;;;;;;;10.88;7.28;;;4.00;80.20;;;;;;4159615;28;20799;-72
2022/04/17 03:59:59;;;;;;;10.43;6.28;;;3.90;79.50;;;;;;4162342;28;20058;-72
2022/04/17 04:02:01;;;;;;;8.73;6.25;;;3.90;79.90;;;;;;4157104;28;20155;-72
2022/04/17 04:04:06;;;;;;;9.82;4.90;;;3.90;80.10;;;;;;4156627;28;20056;-72
2022/04/17 04:06:07;;;;;;;6.00;4.13;;;3.90;80.20;;;;;;4160594;28;20058;-73
2022/04/17 04:08:09;;;;;;;6.72;5.03;;;3.90;80.50;;;;;;4158496;28;20054;-72
2022/04/17 04:10:11;;;;;;;7.38;5.15;;;3.80;80.90;;;;;;4161537;28;20070;-74
2022/04/17 04:12:12;;;;;;;10.77;6.97;;;3.80;81.10;;;;;;4166511;28;20112;-72
2022/04/17 04:14:14;;;;;;;32.05;17.10;;;3.80;81.40;;;;;;4158417;28;20058;-72
2022/04/17 04:16:16;;;;;;;57.90;29.73;;;3.70;81.50;;;;;;4160794;28;20685;-72
2022/04/17 04:18:18;;;;;;;29.73;17.17;;;3.60;81.60;;;;;;4160372;28;20101;-72
2022/04/17 04:20:19;;;;;;;17.90;10.85;;;3.60;81.80;;;;;;4152896;28;20054;-72
2022/04/17 04:22:21;;;;;;;10.50;8.00;;;3.60;81.00;;;;;;4160493;28;20095;-72
2022/04/17 04:24:24;;;;;;;7.38;5.65;;;3.70;81.40;;;;;;4157888;28;20058;-72
2022/04/17 04:26:26;;;;;;;6.25;5.47;;;3.70;81.10;;;;;;4159134;28;20070;-71
2022/04/17 04:28:34;;;;;;;5.00;4.30;;;3.80;81.10;;;;;;4155153;28;20057;-72
2022/04/17 04:30:35;;;;;;;4.95;4.53;;;3.80;80.50;;;;;;4156892;28;20115;-72
2022/04/17 04:32:37;;;;;;;7.72;5.72;;;3.80;81.20;;;;;;4156027;28;20123;-72
2022/04/17 04:34:39;;;;;;;14.93;9.63;;;3.80;81.50;;;;;;4160692;28;20057;-72
2022/04/17 04:36:41;;;;;;;19.65;12.10;;;3.70;81.80;;;;;;4159563;28;20058;-72
2022/04/17 04:38:43;;;;;;;14.23;9.88;;;3.70;82.10;;;;;;4156004;28;21047;-72
2022/04/17 04:40:44;;;;;;;15.15;10.70;;;3.60;82.10;;;;;;4158563;28;20058;-72
2022/04/17 04:42:46;;;;;;;12.52;9.20;;;3.60;82.00;;;;;;4156010;28;20058;-72
2022/04/17 04:46:06;;;;;;;12.60;8.05;;;3.60;82.20;;;;;;4157165;28;20057;-72
2022/04/17 04:47:09;;;;;;;11.77;7.72;;;3.70;82.00;;;;;;4154736;28;20062;-72
2022/04/17 04:49:29;;;;;;;9.52;6.30;;;3.80;81.80;;;;;;4155751;28;20782;-72
2022/04/17 04:51:31;;;;;;;8.65;7.32;;;3.90;80.10;;;;;;4158021;28;20088;-73
2022/04/17 04:53:33;;;;;;;9.68;8.68;;;3.90;80.80;;;;;;4156018;28;20182;-72
2022/04/17 04:55:34;;;;;;;7.20;6.50;;;4.00;80.60;;;;;;4156533;28;20149;-72
2022/04/17 04:57:37;;;;;;;7.28;5.20;;;4.10;80.50;;;;;;4155723;28;20053;-72
2022/04/17 04:59:38;;;;;;;6.05;4.70;;;4.20;80.30;;;;;;4159324;28;20176;-72
2022/04/17 05:01:40;;;;;;;4.28;3.88;;;4.30;80.10;;;;;;4155042;28;20094;-73
2022/04/17 05:03:42;;;;;;;8.20;7.43;;;4.40;80.00;;;;;;4150457;28;20046;-74
2022/04/17 05:05:43;;;;;;;11.23;10.15;;;4.50;79.50;;;;;;4156214;28;20057;-72
2022/04/17 05:07:46;;;;;;;8.85;7.95;;;4.50;78.90;;;;;;4157808;28;20047;-73
2022/04/17 05:09:47;;;;;;;8.25;5.80;;;4.50;78.80;;;;;;4158419;28;20062;-72
2022/04/17 05:11:49;;;;;;;5.43;4.97;;;4.70;78.40;;;;;;4157032;28;20061;-71
2022/04/17 05:13:51;;;;;;;4.88;4.47;;;4.90;77.70;;;;;;4150912;28;20066;-72
2022/04/17 05:15:52;;;;;;;4.22;3.83;;;5.00;77.20;;;;;;4156863;28;20857;-72
2022/04/17 05:17:54;;;;;;;4.45;4.05;;;5.20;76.50;;;;;;4157122;28;20789;-72
2022/04/17 05:19:56;;;;;;;6.93;4.22;;;5.40;76.10;;;;;;4160890;28;20065;-72
2022/04/17 05:21:58;;;;;;;3.65;3.35;;;5.50;75.70;;;;;;4158873;28;21184;-72
2022/04/17 05:24:00;;;;;;;4.55;3.72;;;5.70;74.30;;;;;;4150522;28;20054;-72
2022/04/17 05:26:03;;;;;;;6.35;3.72;;;5.70;72.40;;;;;;4156079;28;20061;-72
2022/04/17 05:28:05;;;;;;;7.85;5.00;;;5.80;71.60;;;;;;4157646;28;20058;-72
2022/04/17 05:30:08;;;;;;;4.45;3.85;;;5.90;70.70;;;;;;4159705;28;20145;-71
2022/04/17 05:32:10;;;;;;;3.47;2.90;;;5.90;70.60;;;;;;4154880;28;20771;-72
2022/04/17 05:34:12;;;;;;;3.30;3.00;;;5.90;69.50;;;;;;4159737;28;20054;-72
2022/04/17 05:36:14;;;;;;;3.88;3.17;;;6.00;68.90;;;;;;4167181;28;20073;-71
2022/04/17 05:38:16;;;;;;;2.88;2.53;;;6.00;68.80;;;;;;4166226;28;20161;-72
2022/04/17 05:40:18;;;;;;;3.22;2.85;;;6.00;68.40;;;;;;4152244;28;20057;-72
2022/04/17 05:42:19;;;;;;;2.92;2.63;;;6.10;68.20;;;;;;4153213;28;20096;-72
2022/04/17 05:44:21;;;;;;;3.22;2.85;;;6.20;68.80;;;;;;4155858;28;20059;-72
2022/04/17 05:46:24;;;;;;;4.35;3.00;;;6.40;67.60;;;;;;4160072;28;20706;-73
2022/04/17 05:48:28;;;;;;;3.28;2.97;;;6.30;67.00;;;;;;4157853;28;20852;-72
2022/04/17 05:50:30;;;;;;;2.92;2.72;;;6.30;66.70;;;;;;4154142;28;20691;-72
2022/04/17 05:52:31;;;;;;;3.70;2.97;;;6.40;67.20;;;;;;4157292;28;20058;-71
2022/04/17 05:54:33;;;;;;;2.97;2.65;;;6.50;66.30;;;;;;4156547;28;20797;-72
2022/04/17 05:56:37;;;;;;;4.35;2.75;;;6.60;66.50;;;;;;4159567;28;20884;-72
2022/04/17 05:58:39;;;;;;;4.65;2.40;;;6.60;66.30;;;;;;4157332;28;20180;-72
2022/04/17 06:00:44;;;;;;;4.40;2.80;;;6.70;66.30;;;;;;4154937;28;20066;-72
2022/04/17 06:02:46;;;;;;;3.45;2.70;;;6.70;66.20;;;;;;4157630;28;20061;-72
2022/04/17 06:04:48;;;;;;;2.83;2.47;;;6.70;66.30;;;;;;4163272;28;20058;-72
2022/04/17 06:06:51;;;;;;;2.75;2.55;;;6.80;65.40;;;;;;4160822;28;20228;-72
2022/04/17 06:08:52;;;;;;;3.58;3.00;;;6.80;65.10;;;;;;4157350;28;20172;-72
2022/04/17 06:10:55;;;;;;;4.47;2.30;;;6.80;65.30;;;;;;4160361;28;20157;-71
2022/04/17 06:12:56;;;;;;;3.50;2.65;;;6.90;65.40;;;;;;4161283;28;20061;-74
2022/04/17 06:14:58;;;;;;;3.17;2.60;;;6.90;64.70;;;;;;4160224;28;20053;-73
2022/04/17 06:17:00;;;;;;;3.10;2.50;;;6.90;64.60;;;;;;4157380;28;20901;-73
2022/04/17 06:19:02;;;;;;;2.30;2.10;;;7.00;65.00;;;;;;4161734;28;20064;-73
2022/04/17 06:21:04;;;;;;;3.25;2.20;;;7.00;64.20;;;;;;4162899;28;20781;-72
2022/04/17 06:23:06;;;;;;;4.47;2.75;;;6.90;64.40;;;;;;4163769;28;20065;-70
2022/04/17 06:25:15;;;;;;;3.67;2.67;;;6.90;64.40;;;;;;4159525;28;20923;-71
2022/04/17 06:27:17;;;;;;;3.85;2.50;;;6.90;63.70;;;;;;4159055;28;20057;-71
2022/04/17 06:29:19;;;;;;;3.13;2.38;;;6.90;63.50;;;;;;4162519;28;20089;-72
2022/04/17 06:31:20;;;;;;;2.88;2.35;;;6.90;64.00;;;;;;4162291;28;20065;-72
2022/04/17 06:33:22;;;;;;;2.63;2.42;;;6.90;64.80;;;;;;4161005;28;20080;-71
2022/04/17 06:35:24;;;;;;;2.55;2.38;;;7.00;64.60;;;;;;4158783;28;20058;-71
2022/04/17 06:37:25;;;;;;;2.55;2.30;;;7.10;63.70;;;;;;4162015;28;20168;-71
2022/04/17 06:39:27;;;;;;;2.15;1.92;;;7.10;63.70;;;;;;4161642;28;20065;-72
2022/04/17 06:41:29;;;;;;;4.90;2.55;;;7.10;63.70;;;;;;4161918;28;20796;-71
2022/04/17 06:43:31;;;;;;;2.35;2.10;;;7.10;63.50;;;;;;4161518;28;20129;-72
2022/04/17 06:45:34;;;;;;;3.88;2.35;;;7.10;62.90;;;;;;4162008;28;20161;-72
2022/04/17 06:47:36;;;;;;;3.60;2.72;;;7.20;63.30;;;;;;4163990;28;20065;-72
2022/04/17 06:49:38;;;;;;;3.75;2.70;;;7.30;62.70;;;;;;4165071;28;20064;-72
2022/04/17 06:51:40;;;;;;;2.80;2.13;;;7.30;62.10;;;;;;4161931;28;20061;-71
2022/04/17 06:53:42;;;;;;;2.60;2.40;;;7.40;62.10;;;;;;4162694;28;20062;-71
2022/04/17 06:55:50;;;;;;;3.30;2.40;;;7.40;61.80;;;;;;4165123;28;20081;-72
2022/04/17 06:57:51;;;;;;;2.80;2.25;;;7.30;61.30;;;;;;4165080;28;20695;-72
2022/04/17 06:59:53;;;;;;;4.25;3.10;;;7.40;62.60;;;;;;4164603;28;20058;-72
2022/04/17 07:01:55;;;;;;;2.67;2.20;;;7.40;62.60;;;;;;4169892;28;20068;-72
2022/04/17 07:04:00;;;;;;;2.40;2.20;;;7.50;62.80;;;;;;4171949;28;20080;-73
2022/04/17 07:06:01;;;;;;;2.38;2.17;;;7.60;61.60;;;;;;4165058;28;20050;-72
2022/04/17 07:08:05;;;;;;;2.05;1.95;;;7.70;62.70;;;;;;4164854;28;20062;-72
2022/04/17 07:10:08;;;;;;;3.00;1.95;;;7.70;59.80;;;;;;4163843;28;20871;-73
2022/04/17 07:12:10;;;;;;;2.70;2.50;;;7.70;59.90;;;;;;4206069;23;20159;-76
2022/04/17 07:14:14;;;;;;;2.83;1.95;;;7.70;60.10;;;;;;4210783;28;20120;-75
2022/04/17 07:16:16;;;;;;;2.45;2.13;;;7.70;60.30;;;;;;4200895;28;20958;-76
2022/04/17 07:18:18;;;;;;;4.40;2.00;;;7.80;60.20;;;;;;4166248;28;20057;-75
2022/04/17 07:20:21;;;;;;;3.95;2.55;;;7.80;60.00;;;;;;4183783;28;20111;-75
2022/04/17 07:22:23;;;;;;;2.95;1.90;;;7.80;60.00;;;;;;4169285;28;20148;-75
2022/04/17 07:24:26;;;;;;;4.57;2.38;;;7.90;59.50;;;;;;4217226;28;20748;-76
2022/04/17 07:26:28;;;;;;;1.95;1.80;;;7.90;59.50;;;;;;4209713;28;20617;-76
2022/04/17 07:28:30;;;;;;;2.75;2.10;;;8.00;59.20;;;;;;4187733;28;20065;-75
2022/04/17 07:30:33;;;;;;;2.03;1.90;;;8.10;59.10;;;;;;4171909;28;20065;-75
2022/04/17 07:32:35;;;;;;;4.22;2.20;;;8.10;59.00;;;;;;4208307;28;20862;-76
2022/04/17 07:34:37;;;;;;;2.45;2.20;;;8.10;59.00;;;;;;4198553;28;20815;-75
2022/04/17 07:36:38;;;;;;;3.10;1.67;;;8.20;59.00;;;;;;4217036;28;20049;-76
2022/04/17 07:38:40;;;;;;;4.22;2.20;;;8.30;58.70;;;;;;4182081;28;20063;-77
2022/04/17 07:40:42;;;;;;;1.77;1.67;;;8.40;58.80;;;;;;4188235;28;20053;-75
2022/04/17 07:42:45;;;;;;;2.95;2.42;;;8.40;58.40;;;;;;4210955;28;20060;-77
2022/04/17 07:44:48;;;;;;;2.15;1.95;;;8.40;58.20;;;;;;4178025;28;20066;-76
2022/04/17 07:46:50;;;;;;;2.08;1.80;;;8.40;57.80;;;;;;4165568;28;20922;-75
2022/04/17 07:48:52;;;;;;;1.95;1.75;;;8.50;57.70;;;;;;4192386;28;20057;-76
2022/04/17 07:50:54;;;;;;;1.80;1.70;;;8.70;58.40;;;;;;4202663;28;20060;-77
2022/04/17 07:52:56;;;;;;;2.83;2.03;;;8.70;57.10;;;;;;4213388;28;20087;-77
2022/04/17 07:54:58;;;;;;;2.50;2.05;;;8.70;56.20;;;;;;4200670;28;20100;-76
2022/04/17 07:57:00;;;;;;;1.90;1.70;;;8.40;56.70;;;;;;4188134;28;20148;-75
2022/04/17 07:59:02;;;;;;;2.80;2.00;;;8.40;57.70;;;;;;4203055;28;20068;-76
2022/04/17 08:01:10;;;;;;;1.80;1.70;;;8.30;57.40;;;;;;4198931;28;20064;-76
2022/04/17 08:05:38;;;;;;;1.92;1.60;;;8.30;57.30;;;;;;4180219;28;20911;-75
2022/04/17 08:07:40;;;;;;;4.43;2.30;;;8.50;58.50;;;;;;4207354;28;20061;-75
2022/04/17 08:09:41;;;;;;;4.57;2.40;;;8.70;57.10;;;;;;4212735;28;20098;-76
2022/04/17 08:11:43;;;;;;;4.50;1.40;;;8.90;58.10;;;;;;4188903;28;20064;-76
2022/04/17 08:13:46;;;;;;;2.45;1.70;;;9.00;56.80;;;;;;4201033;28;20096;-76
2022/04/17 08:15:50;;;;;;;4.97;1.58;;;9.20;57.00;;;;;;4185195;28;20093;-76
2022/04/17 08:17:52;;;;;;;1.55;1.45;;;9.20;55.80;;;;;;4190344;28;20092;-77
2022/04/17 08:19:54;;;;;;;2.83;2.25;;;9.10;55.70;;;;;;4214236;28;20874;-76
2022/04/17 08:21:56;;;;;;;2.70;1.95;;;9.00;55.80;;;;;;4185222;28;20064;-76
2022/04/17 08:24:00;;;;;;;2.60;1.88;;;9.10;56.80;;;;;;4194893;28;20061;-76
2022/04/17 08:26:02;;;;;;;2.30;2.10;;;9.30;57.30;;;;;;4194586;28;20057;-76
2022/04/17 08:28:04;;;;;;;2.03;1.52;;;9.40;56.40;;;;;;4184309;28;20116;-76
2022/04/17 08:30:06;;;;;;;1.98;1.80;;;9.50;56.10;;;;;;4209844;28;20060;-76
2022/04/17 08:32:09;;;;;;;1.90;1.80;;;9.70;56.50;;;;;;4212806;28;20658;-77
2022/04/17 08:34:11;;;;;;;3.90;2.45;;;9.70;55.30;;;;;;4201486;28;20060;-76
2022/04/17 08:36:12;;;;;;;3.08;1.80;;;9.80;55.80;;;;;;4191214;28;20061;-76
2022/04/17 08:38:19;;;;;;;1.52;1.42;;;9.80;54.80;;;;;;4178943;28;20068;-75
2022/04/17 08:40:22;;;;;;;3.08;2.05;;;9.70;54.40;;;;;;4190121;28;20895;-76
2022/04/17 08:42:26;;;;;;;3.15;1.83;;;9.60;55.60;;;;;;4168195;28;20088;-77
2022/04/17 08:44:28;;;;;;;3.72;1.40;;;9.80;55.70;;;;;;4178961;28;21243;-76
2022/04/17 08:46:30;;;;;;;2.50;1.55;;;10.00;53.90;;;;;;4192792;28;20117;-76
2022/04/17 08:48:33;;;;;;;2.60;2.00;;;10.00;54.20;;;;;;4178506;28;20054;-76
2022/04/17 08:50:35;;;;;;;3.10;1.83;;;10.00;52.60;;;;;;4174743;28;20065;-77
2022/04/17 08:52:38;;;;;;;2.10;1.88;;;10.00;53.10;;;;;;4189902;28;20164;-77
2022/04/17 08:54:42;;;;;;;2.05;1.30;;;10.00;52.50;;;;;;4180637;28;20057;-76
2022/04/17 08:56:45;;;;;;;5.88;1.67;;;9.90;51.30;;;;;;4172990;28;20046;-76
2022/04/17 08:58:47;;;;;;;1.65;1.33;;;9.90;52.40;;;;;;4185044;28;20064;-77
2022/04/17 09:00:49;;;;;;;2.20;1.73;;;10.10;51.90;;;;;;4215455;28;20065;-76
2022/04/17 09:02:51;;;;;;;2.92;1.73;;;10.20;51.50;;;;;;4193625;28;20075;-76
2022/04/17 09:04:54;;;;;;;2.10;1.83;;;10.20;52.00;;;;;;4214174;28;20040;-77
2022/04/17 09:06:56;;;;;;;3.92;1.58;;;10.20;51.70;;;;;;4212987;28;20091;-77
2022/04/17 09:09:04;;;;;;;1.63;1.52;;;10.10;51.40;;;;;;4205026;28;20085;-78
2022/04/17 09:11:09;;;;;;;1.92;1.42;;;10.10;49.90;;;;;;4174614;28;20111;-76
2022/04/17 09:13:11;;;;;;;4.22;1.35;;;10.10;50.70;;;;;;4193541;28;20903;-76
2022/04/17 09:15:14;;;;;;;1.88;1.40;;;10.20;50.20;;;;;;4197722;28;20862;-76
2022/04/17 09:17:17;;;;;;;3.42;1.50;;;10.20;49.00;;;;;;4213225;28;20131;-77
2022/04/17 09:19:20;;;;;;;4.15;1.58;;;10.10;50.40;;;;;;4215145;28;20056;-77
2022/04/17 09:21:33;;;;;;;1.48;1.23;;;10.30;50.20;;;;;;4194165;28;20054;-77
2022/04/17 09:23:38;;;;;;;1.95;1.10;;;10.50;48.50;;;;;;4174434;28;20058;-76
2022/04/17 09:25:43;;;;;;;1.20;1.10;;;10.40;46.60;;;;;;4191549;28;20856;-76
2022/04/17 09:28:05;;;;;;;1.38;1.10;;;10.50;49.10;;;;;;4191312;28;20065;-77
2022/04/17 09:30:28;;;;;;;4.78;1.13;;;10.40;46.80;;;;;;4181823;28;20760;-77
2022/04/17 09:32:31;;;;;;;2.50;1.30;;;10.50;47.90;;;;;;4169168;28;20262;-76
2022/04/17 09:34:52;;;;;;;1.30;1.20;;;10.50;47.20;;;;;;4180292;28;20053;-77
2022/04/17 09:36:58;;;;;;;2.30;1.23;;;10.60;47.50;;;;;;4192373;28;20053;-77
2022/04/17 09:39:14;;;;;;;1.17;1.08;;;10.80;47.70;;;;;;4184266;28;20608;-76
2022/04/17 09:41:19;;;;;;;2.78;1.63;;;10.80;47.00;;;;;;4194813;28;20845;-76
2022/04/17 09:43:21;;;;;;;1.20;1.05;;;10.80;47.80;;;;;;4180842;28;20056;-77
2022/04/17 09:45:24;;;;;;;2.05;1.30;;;10.90;46.70;;;;;;4206651;28;20052;-77
2022/04/17 09:47:28;;;;;;;3.00;1.50;;;11.00;46.60;;;;;;4204335;28;20055;-76
2022/04/17 09:50:00;;;;;;;1.42;1.30;;;10.80;46.00;;;;;;4174802;28;20819;-77
2022/04/17 09:52:07;;;;;;;1.50;1.40;;;10.80;46.60;;;;;;4201891;28;20064;-76
2022/04/17 09:54:09;;;;;;;2.08;1.33;;;10.80;47.20;;;;;;4196045;28;20163;-76
2022/04/17 09:56:12;;;;;;;2.72;2.08;;;10.90;47.10;;;;;;4200377;28;20926;-77
2022/04/17 09:58:21;;;;;;;1.52;1.42;;;11.00;48.20;;;;;;4211167;28;20064;-76
2022/04/17 10:00:24;;;;;;;1.60;1.30;;;11.10;46.70;;;;;;4189169;28;20061;-77
2022/04/17 10:02:27;;;;;;;2.80;1.63;;;11.20;45.50;;;;;;4194506;28;20061;-76
2022/04/17 10:04:29;;;;;;;1.58;1.33;;;11.20;46.30;;;;;;4195633;28;20103;-75
2022/04/17 10:06:33;;;;;;;1.90;1.23;;;11.30;46.30;;;;;;4168103;28;20213;-76
2022/04/17 10:08:37;;;;;;;1.65;1.27;;;11.40;46.30;;;;;;4183166;28;20067;-76
2022/04/17 10:10:39;;;;;;;2.75;1.45;;;11.30;46.50;;;;;;4182480;28;20848;-76
2022/04/17 10:12:46;;;;;;;1.38;1.17;;;11.20;46.90;;;;;;4194564;28;20042;-76
2022/04/17 10:14:49;;;;;;;1.30;1.20;;;11.30;48.00;;;;;;4191973;28;20067;-77
2022/04/17 10:16:55;;;;;;;4.32;1.20;;;11.30;47.20;;;;;;4210576;28;20123;-76
2022/04/17 10:18:59;;;;;;;4.05;1.52;;;11.30;47.30;;;;;;4214630;28;20192;-77
2022/04/17 10:21:06;;;;;;;2.83;1.65;;;11.40;47.70;;;;;;4203472;28;20052;-78
2022/04/17 10:23:11;;;;;;;1.10;1.00;;;11.30;45.80;;;;;;4202331;28;20707;-76
2022/04/17 10:25:15;;;;;;;1.90;1.52;;;11.30;46.60;;;;;;4172645;28;20151;-76
2022/04/17 10:27:22;;;;;;;1.98;1.25;;;11.40;47.40;;;;;;4193031;28;20061;-77
2022/04/17 10:29:40;;;;;;;1.85;1.05;;;11.50;46.00;;;;;;4181682;28;20915;-77
2022/04/17 10:31:59;;;;;;;1.95;0.95;;;11.30;47.10;;;;;;4204724;28;20131;-77
2022/04/17 10:34:07;;;;;;;1.23;1.13;;;11.30;48.10;;;;;;4200068;28;20130;-77
2022/04/17 10:36:29;;;;;;;1.63;1.40;;;11.40;47.90;;;;;;4198390;28;20115;-76
2022/04/17 10:38:40;;;;;;;2.15;1.27;;;11.60;47.10;;;;;;4185585;28;20646;-76
2022/04/17 10:40:54;;;;;;;2.17;1.48;;;11.60;47.50;;;;;;4200797;28;20087;-76
2022/04/17 10:43:01;;;;;;;2.28;1.42;;;11.80;48.90;;;;;;4182665;28;20096;-77
2022/04/17 10:45:08;;;;;;;3.95;1.50;;;11.90;47.80;;;;;;4199598;28;20083;-76
2022/04/17 10:47:22;;;;;;;1.17;0.90;;;12.10;47.10;;;;;;4182141;28;20152;-77
2022/04/17 10:49:32;;;;;;;2.95;1.20;;;12.20;46.10;;;;;;4165798;28;20137;-77
2022/04/17 10:51:38;;;;;;;2.15;1.73;;;12.30;45.40;;;;;;4183715;28;20048;-77
2022/04/17 10:54:13;;;;;;;1.45;1.30;;;12.40;46.20;;;;;;4182707;28;21391;-76
2022/04/17 10:56:16;;;;;;;1.50;1.40;;;12.30;45.20;;;;;;4177266;28;20057;-77
2022/04/17 10:58:41;;;;;;;1.02;0.90;;;12.20;45.90;;;;;;4176228;28;20922;-77